Hovedside
METAR-TAF:

METAR-TAF

Lufthavner :

Liepāja, Latvia

Liepāja internasjonale lufthavn

breddegrad: 56-31N, lengdegrad: 021-05E, høyde over havet: 5 m

Gjeldene værobservasjon

Denne rapporten ble laget for 11 minutter siden, klokken 10:20 UTC
Vind 19 kt fra Sørvest
Temperatur 17°C
Luftfuktighet 72%
Trykk 1004 hPa
Sikt 10 km eller mer

METAR: EVLA 251020Z AUTO 23019KT 9999 BKN020/// BKN056/// 17/12 Q1004

Tid: 13:31 (10:31 UTC)


TAF: fraværende

Værobservasjoner og værvarsel for over 4000 flyplasser (METAR- og TAF-rapporter).

Tilgjengelige stasjoner er representert av de røde og gule prikkene på kartet.

Hold musepekeren over prikken for å se navnet på stasjonen.

Klikk så for å se værobservasjoner og -varsler.

For å forandre kartet kan du klikke på den grønne knappen med svart kryss for å zoome inn, på den grønne knappen med strek for å zoome ut, eller på de grønne pilene for å se tilstøtende kart.


METAR-TAF: